createdAt,value
2023-11-29T00:01:39.534Z,2.90
2023-11-29T00:04:06.282Z,3.00
2023-11-29T00:06:33.132Z,3.30
2023-11-29T00:08:59.999Z,2.90
2023-11-29T00:11:26.788Z,2.90
2023-11-29T00:13:53.653Z,2.80
2023-11-29T00:16:20.366Z,2.70
2023-11-29T00:18:47.211Z,2.70
2023-11-29T00:21:13.960Z,2.60
2023-11-29T00:23:40.722Z,2.70
2023-11-29T00:26:07.473Z,2.60
2023-11-29T00:28:34.221Z,2.60
2023-11-29T00:31:01.046Z,2.50
2023-11-29T00:33:28.043Z,3.10
2023-11-29T00:35:56.277Z,2.60
2023-11-29T00:38:24.351Z,2.50
2023-11-29T00:40:52.386Z,2.60
2023-11-29T00:43:19.726Z,2.50
2023-11-29T00:45:46.441Z,2.50
2023-11-29T00:48:13.150Z,2.70
2023-11-29T00:50:39.866Z,2.70
2023-11-29T00:53:06.711Z,2.60
2023-11-29T00:55:35.797Z,2.50
2023-11-29T00:58:03.365Z,2.50
2023-11-29T01:00:30.976Z,2.60
2023-11-29T01:02:59.579Z,2.50
2023-11-29T01:05:26.872Z,2.60
2023-11-29T01:07:54.878Z,2.80
2023-11-29T01:10:24.171Z,2.70
2023-11-29T01:12:52.295Z,3.50
2023-11-29T01:15:18.994Z,3.20
2023-11-29T01:17:45.768Z,4.30
2023-11-29T01:20:13.466Z,3.70
2023-11-29T01:22:40.413Z,3.50
2023-11-29T01:25:07.839Z,3.30
2023-11-29T01:27:35.102Z,3.10
2023-11-29T01:30:04.054Z,3.20
2023-11-29T01:32:30.877Z,3.20
2023-11-29T01:34:57.757Z,3.10
2023-11-29T01:37:24.528Z,3.00
2023-11-29T01:39:51.332Z,3.00
2023-11-29T01:42:18.418Z,3.30
2023-11-29T01:44:45.364Z,3.20
2023-11-29T01:47:15.259Z,3.10
2023-11-29T01:49:42.954Z,3.20
2023-11-29T01:52:10.762Z,3.70
2023-11-29T01:54:38.851Z,5.10
2023-11-29T01:57:05.622Z,5.80
2023-11-29T01:59:32.513Z,6.20
2023-11-29T02:01:59.253Z,5.80
2023-11-29T02:04:26.354Z,4.70
2023-11-29T02:06:53.261Z,4.30
2023-11-29T02:09:20.034Z,4.00
2023-11-29T02:11:48.080Z,4.20
2023-11-29T02:14:14.976Z,4.90
2023-11-29T02:16:44.800Z,5.00
2023-11-29T02:19:11.487Z,4.50
2023-11-29T02:21:38.385Z,4.30
2023-11-29T02:24:08.425Z,3.90
2023-11-29T02:26:35.360Z,3.80
2023-11-29T02:29:02.457Z,3.70
2023-11-29T02:31:29.230Z,3.70
2023-11-29T02:33:56.353Z,4.00
2023-11-29T02:36:23.114Z,5.60
2023-11-29T02:38:49.833Z,6.00
2023-11-29T02:41:16.595Z,5.30
2023-11-29T02:43:43.467Z,6.20
2023-11-29T02:46:10.162Z,4.70
2023-11-29T02:48:37.941Z,4.80
2023-11-29T02:51:04.921Z,4.60
2023-11-29T02:53:31.689Z,5.10
2023-11-29T02:55:58.520Z,6.00
2023-11-29T02:58:26.344Z,6.00
2023-11-29T03:00:53.838Z,7.20
2023-11-29T03:03:20.706Z,7.20
2023-11-29T03:05:49.391Z,6.40
2023-11-29T03:08:16.313Z,6.00
2023-11-29T03:10:44.170Z,6.20
2023-11-29T03:13:10.901Z,7.20
2023-11-29T03:15:37.637Z,6.00
2023-11-29T03:18:04.417Z,6.40
2023-11-29T03:20:31.582Z,6.00
2023-11-29T03:22:58.270Z,6.80
2023-11-29T03:25:24.950Z,6.70
2023-11-29T03:27:51.700Z,6.20
2023-11-29T03:30:18.427Z,5.60
2023-11-29T03:32:45.229Z,5.00
2023-11-29T03:35:12.105Z,4.90
2023-11-29T03:37:38.916Z,5.60
2023-11-29T03:40:06.178Z,6.50
2023-11-29T03:42:32.893Z,6.20
2023-11-29T03:45:01.795Z,6.30
2023-11-29T03:47:28.513Z,6.20
2023-11-29T03:49:55.345Z,7.00
2023-11-29T03:52:23.465Z,7.00
2023-11-29T03:54:50.196Z,6.50
2023-11-29T03:57:16.883Z,6.70
2023-11-29T03:59:43.869Z,6.20
2023-11-29T04:02:10.771Z,7.90
2023-11-29T04:04:39.875Z,7.30
2023-11-29T04:07:06.697Z,6.30
2023-11-29T04:09:33.356Z,6.70
2023-11-29T04:12:01.010Z,6.80
2023-11-29T04:14:27.794Z,7.50
2023-11-29T04:16:54.545Z,8.50
2023-11-29T04:19:21.261Z,7.80
2023-11-29T04:21:47.994Z,7.80
2023-11-29T04:24:14.729Z,7.30
2023-11-29T04:26:42.431Z,7.20
2023-11-29T04:29:10.996Z,6.40
2023-11-29T04:31:39.621Z,6.10
2023-11-29T04:34:14.048Z,5.80
2023-11-29T04:36:51.175Z,5.90
2023-11-29T04:39:19.347Z,7.20
2023-11-29T04:41:46.403Z,6.40
2023-11-29T04:44:13.228Z,5.90
2023-11-29T04:46:40.224Z,6.80
2023-11-29T04:49:07.011Z,6.80
2023-11-29T04:51:33.900Z,6.50
2023-11-29T04:54:00.647Z,6.70
2023-11-29T04:56:28.598Z,6.80
2023-11-29T04:58:56.254Z,7.10
2023-11-29T05:01:22.989Z,6.50
2023-11-29T05:03:49.855Z,8.10
2023-11-29T05:06:16.662Z,8.40
2023-11-29T05:08:43.423Z,7.80
2023-11-29T05:11:10.246Z,8.10
2023-11-29T05:13:37.060Z,7.20
2023-11-29T05:16:03.784Z,7.40
2023-11-29T05:18:30.611Z,6.00
2023-11-29T05:20:58.336Z,5.60
2023-11-29T05:23:26.110Z,5.20
2023-11-29T05:25:52.911Z,7.70
2023-11-29T05:28:25.435Z,7.20
2023-11-29T05:30:53.671Z,6.40
2023-11-29T05:33:23.329Z,6.30
2023-11-29T05:35:50.846Z,6.10
2023-11-29T05:38:17.652Z,6.00
2023-11-29T05:40:44.583Z,5.90
2023-11-29T05:43:11.726Z,5.80
2023-11-29T05:45:38.445Z,5.30
2023-11-29T05:48:06.046Z,5.30
2023-11-29T05:50:32.984Z,4.90
2023-11-29T05:52:59.721Z,4.70
2023-11-29T05:55:26.473Z,4.80
2023-11-29T05:57:53.205Z,4.70
2023-11-29T06:00:27.918Z,4.80
2023-11-29T06:03:00.912Z,4.70
2023-11-29T06:05:28.814Z,4.40
2023-11-29T06:07:55.650Z,4.30
2023-11-29T06:10:22.516Z,5.70
2023-11-29T06:12:49.639Z,6.50
2023-11-29T06:15:16.750Z,6.60
2023-11-29T06:17:44.053Z,8.10
2023-11-29T06:20:12.937Z,7.80
2023-11-29T06:22:39.978Z,7.50
2023-11-29T06:25:09.129Z,8.00
2023-11-29T06:27:36.783Z,7.90
2023-11-29T06:30:05.131Z,8.60
2023-11-29T06:32:32.835Z,8.60
2023-11-29T06:34:59.882Z,9.20
2023-11-29T06:37:26.844Z,9.10
2023-11-29T06:39:55.140Z,9.10
2023-11-29T06:42:23.104Z,9.10
2023-11-29T06:44:50.478Z,8.80
2023-11-29T06:47:18.540Z,9.20
2023-11-29T06:49:45.980Z,9.30
2023-11-29T06:52:13.842Z,9.60
2023-11-29T06:54:40.712Z,10.40
2023-11-29T06:57:07.440Z,10.70
2023-11-29T06:59:35.960Z,11.10
2023-11-29T07:02:05.917Z,11.00
2023-11-29T07:04:32.992Z,11.20
2023-11-29T07:07:00.815Z,11.30
2023-11-29T07:09:28.655Z,11.50
2023-11-29T07:11:56.132Z,11.60
2023-11-29T07:14:24.573Z,11.70
2023-11-29T07:16:52.002Z,11.70
2023-11-29T07:19:19.820Z,11.80
2023-11-29T07:21:46.603Z,11.90
2023-11-29T07:24:13.518Z,11.90
2023-11-29T07:26:40.522Z,12.00
2023-11-29T07:29:09.289Z,12.10
2023-11-29T07:31:36.265Z,12.10
2023-11-29T07:34:03.138Z,12.00
2023-11-29T07:36:32.449Z,12.10
2023-11-29T07:39:00.058Z,12.30
2023-11-29T07:41:28.104Z,12.40
2023-11-29T07:43:55.126Z,12.40
2023-11-29T07:46:22.009Z,11.60
2023-11-29T07:48:49.023Z,12.20
2023-11-29T07:51:15.887Z,12.30
2023-11-29T07:53:45.102Z,12.50
2023-11-29T07:56:12.285Z,12.10
2023-11-29T07:58:39.058Z,9.50
2023-11-29T08:01:06.380Z,7.60
2023-11-29T08:03:33.523Z,7.20
2023-11-29T08:06:00.382Z,7.10
2023-11-29T08:08:27.193Z,7.20
2023-11-29T08:10:53.982Z,7.00
2023-11-29T08:13:20.808Z,8.00
2023-11-29T08:15:47.713Z,8.20
2023-11-29T08:18:15.415Z,8.30
2023-11-29T08:20:42.461Z,8.10
2023-11-29T08:23:09.178Z,8.10
2023-11-29T08:25:35.861Z,8.10
2023-11-29T08:28:03.673Z,8.00
2023-11-29T08:30:30.363Z,8.30
2023-11-29T08:32:58.347Z,8.40
2023-11-29T08:35:25.323Z,8.50
2023-11-29T08:37:52.101Z,8.50
2023-11-29T08:40:18.842Z,8.40
2023-11-29T08:42:45.735Z,8.40
2023-11-29T08:45:12.728Z,8.60
2023-11-29T08:47:39.627Z,8.70
2023-11-29T08:50:06.797Z,8.90
2023-11-29T08:52:34.000Z,8.90
2023-11-29T08:55:00.996Z,8.80
2023-11-29T08:57:27.825Z,8.90
2023-11-29T08:59:54.891Z,8.90
2023-11-29T09:02:23.311Z,8.90
2023-11-29T09:04:50.871Z,8.90
2023-11-29T09:07:20.762Z,8.70
2023-11-29T09:09:48.809Z,9.00
2023-11-29T09:12:16.894Z,8.60
2023-11-29T09:14:44.769Z,8.70
2023-11-29T09:17:11.890Z,8.40
2023-11-29T09:19:39.440Z,8.40
2023-11-29T09:22:06.176Z,8.70
2023-11-29T09:24:33.040Z,8.40
2023-11-29T09:27:00.653Z,8.70
2023-11-29T09:29:27.762Z,8.60
2023-11-29T09:31:54.911Z,8.60
2023-11-29T09:34:23.535Z,8.40
2023-11-29T09:36:51.434Z,8.50
2023-11-29T09:39:19.145Z,8.60
2023-11-29T09:41:46.642Z,8.30
2023-11-29T09:44:15.148Z,8.60
2023-11-29T09:46:43.228Z,8.60
2023-11-29T09:49:11.817Z,8.20
2023-11-29T09:51:38.535Z,8.60
2023-11-29T09:54:05.554Z,8.60
2023-11-29T09:56:32.559Z,8.70
2023-11-29T09:58:59.732Z,8.70
2023-11-29T10:01:27.897Z,8.70
2023-11-29T10:04:04.715Z,8.50
2023-11-29T10:06:33.655Z,8.80
2023-11-29T10:09:06.600Z,8.90
2023-11-29T10:11:34.261Z,8.60
2023-11-29T10:14:01.352Z,8.70
2023-11-29T10:16:32.133Z,8.70
2023-11-29T10:19:01.890Z,8.80
2023-11-29T10:21:28.783Z,8.70
2023-11-29T10:23:55.626Z,9.20
2023-11-29T10:26:23.887Z,9.10
2023-11-29T10:28:52.381Z,9.30
2023-11-29T10:31:19.673Z,9.10
2023-11-29T10:33:48.090Z,9.20
2023-11-29T10:36:18.670Z,9.30
2023-11-29T10:38:51.200Z,9.20
2023-11-29T10:41:20.560Z,9.40
2023-11-29T10:43:49.671Z,9.50
2023-11-29T10:46:24.003Z,9.50
2023-11-29T10:48:57.685Z,9.40
2023-11-29T10:51:25.220Z,9.40
2023-11-29T10:53:52.995Z,9.50
2023-11-29T10:56:20.512Z,9.70
2023-11-29T10:58:52.890Z,9.80
2023-11-29T11:01:34.124Z,9.60
2023-11-29T11:04:01.741Z,9.70
2023-11-29T11:06:31.467Z,9.80
2023-11-29T11:08:58.948Z,9.80
2023-11-29T11:11:41.067Z,9.70
2023-11-29T11:14:19.429Z,9.70
2023-11-29T11:17:00.201Z,9.80
2023-11-29T11:19:40.634Z,9.70
2023-11-29T11:22:15.909Z,9.40
2023-11-29T11:25:04.607Z,9.30
2023-11-29T11:27:39.397Z,9.60
2023-11-29T11:30:15.277Z,9.40
2023-11-29T11:32:42.552Z,9.50
2023-11-29T11:35:18.812Z,9.70
2023-11-29T11:37:54.449Z,9.60
2023-11-29T11:40:23.715Z,9.40
2023-11-29T11:42:50.441Z,9.30
2023-11-29T11:45:17.897Z,9.50
2023-11-29T11:47:45.068Z,9.50
2023-11-29T11:50:14.238Z,9.50
2023-11-29T11:52:41.566Z,9.70
2023-11-29T11:55:10.310Z,9.60
2023-11-29T11:57:40.227Z,9.90
2023-11-29T12:00:09.058Z,9.70
2023-11-29T12:02:36.540Z,9.90
2023-11-29T12:05:07.408Z,10.10
2023-11-29T12:07:44.354Z,10.10
2023-11-29T12:10:15.382Z,10.10
2023-11-29T12:12:46.072Z,10.00
2023-11-29T12:15:19.171Z,9.90
2023-11-29T12:17:48.198Z,10.00
2023-11-29T12:20:15.710Z,10.10
2023-11-29T12:22:51.310Z,10.10
2023-11-29T12:25:23.411Z,10.10
2023-11-29T12:27:52.121Z,10.10
2023-11-29T12:30:20.841Z,10.10
2023-11-29T12:32:48.100Z,10.20
2023-11-29T12:35:17.432Z,10.20
2023-11-29T12:37:47.415Z,10.10
2023-11-29T12:40:20.961Z,10.10
2023-11-29T12:42:48.934Z,10.10
2023-11-29T12:45:17.029Z,10.10
2023-11-29T12:47:44.277Z,10.10
2023-11-29T12:50:12.804Z,10.00
2023-11-29T12:52:39.695Z,10.00
2023-11-29T12:55:06.987Z,9.80
2023-11-29T12:57:33.815Z,9.40
2023-11-29T13:00:00.805Z,9.20
2023-11-29T13:02:27.756Z,9.40
2023-11-29T13:04:54.601Z,9.40
2023-11-29T13:07:21.475Z,9.10
2023-11-29T13:09:48.143Z,9.10
2023-11-29T13:12:15.951Z,9.00
2023-11-29T13:14:43.382Z,8.80
2023-11-29T13:17:14.780Z,8.70
2023-11-29T13:19:44.794Z,8.80
2023-11-29T13:22:11.685Z,8.80
2023-11-29T13:24:38.577Z,8.70
2023-11-29T13:27:08.548Z,8.50
2023-11-29T13:29:35.953Z,8.50
2023-11-29T13:32:03.228Z,8.50
2023-11-29T13:34:31.340Z,8.60
2023-11-29T13:36:59.396Z,8.60
2023-11-29T13:39:28.651Z,8.60
2023-11-29T13:41:55.750Z,8.60
2023-11-29T13:44:25.921Z,8.50
2023-11-29T13:46:53.231Z,8.30
2023-11-29T13:49:20.232Z,8.50
2023-11-29T13:51:53.779Z,7.10
2023-11-29T13:54:26.990Z,6.80
2023-11-29T13:56:53.713Z,6.90
2023-11-29T13:59:20.548Z,7.30
2023-11-29T14:01:47.773Z,6.60
2023-11-29T14:04:14.610Z,6.50
2023-11-29T14:06:41.467Z,6.40
2023-11-29T14:09:09.271Z,6.20
2023-11-29T14:11:39.219Z,6.10
2023-11-29T14:14:05.994Z,6.00
2023-11-29T14:16:32.770Z,6.00
2023-11-29T14:18:59.538Z,5.90
2023-11-29T14:21:26.332Z,5.80
2023-11-29T14:23:53.150Z,5.80
2023-11-29T14:26:19.877Z,5.70
2023-11-29T14:28:46.609Z,5.70
2023-11-29T14:31:13.381Z,6.20
2023-11-29T14:33:40.174Z,5.60
2023-11-29T14:36:07.128Z,5.40
2023-11-29T14:38:33.838Z,5.60
2023-11-29T14:41:06.348Z,5.40
2023-11-29T14:43:38.531Z,5.30
2023-11-29T14:46:05.495Z,5.30
2023-11-29T14:48:32.581Z,5.20
2023-11-29T14:51:01.091Z,5.10
2023-11-29T14:53:28.094Z,5.10
2023-11-29T14:55:55.081Z,5.00
2023-11-29T14:58:23.442Z,4.90
2023-11-29T15:00:50.646Z,4.80
2023-11-29T15:03:17.480Z,4.90
2023-11-29T15:05:44.304Z,6.40
2023-11-29T15:08:11.125Z,6.50
2023-11-29T15:10:38.068Z,6.70
2023-11-29T15:13:04.954Z,6.80
2023-11-29T15:15:31.635Z,7.00
2023-11-29T15:17:59.022Z,7.50
2023-11-29T15:20:26.651Z,7.40
2023-11-29T15:22:53.400Z,7.40
2023-11-29T15:25:21.559Z,7.30
2023-11-29T15:27:48.759Z,7.30
2023-11-29T15:30:16.673Z,7.30
2023-11-29T15:32:43.454Z,7.50
2023-11-29T15:35:11.160Z,7.60
2023-11-29T15:37:37.927Z,7.70
2023-11-29T15:40:05.499Z,7.70
2023-11-29T15:42:32.294Z,7.80
2023-11-29T15:44:59.049Z,7.90
2023-11-29T15:47:25.996Z,7.90
2023-11-29T15:49:52.709Z,8.00
2023-11-29T15:52:19.676Z,8.00
2023-11-29T15:54:47.913Z,8.20
2023-11-29T15:57:15.901Z,8.20
2023-11-29T15:59:42.630Z,6.30
2023-11-29T16:02:09.659Z,5.60
2023-11-29T16:04:36.533Z,5.50
2023-11-29T16:07:03.842Z,6.50
2023-11-29T16:09:31.314Z,7.20
2023-11-29T16:11:58.182Z,7.30
2023-11-29T16:14:24.998Z,7.30
2023-11-29T16:16:51.840Z,7.30
2023-11-29T16:19:18.587Z,7.30
2023-11-29T16:21:45.278Z,7.30
2023-11-29T16:24:12.140Z,7.40
2023-11-29T16:26:38.979Z,7.60
2023-11-29T16:29:05.732Z,7.90
2023-11-29T16:31:32.567Z,8.00
2023-11-29T16:33:59.569Z,8.10
2023-11-29T16:36:26.474Z,8.10
2023-11-29T16:38:53.235Z,8.30
2023-11-29T16:41:20.033Z,8.20
2023-11-29T16:43:47.266Z,8.10
2023-11-29T16:46:14.283Z,8.20
2023-11-29T16:48:41.590Z,8.20
2023-11-29T16:51:10.088Z,8.30
2023-11-29T16:53:36.819Z,8.30
2023-11-29T16:56:07.181Z,8.10
2023-11-29T16:58:35.894Z,8.10
2023-11-29T17:01:03.385Z,8.00
2023-11-29T17:03:30.310Z,8.10
2023-11-29T17:05:57.380Z,8.10
2023-11-29T17:08:24.371Z,8.10
2023-11-29T17:10:51.946Z,8.10
2023-11-29T17:13:18.973Z,8.00
2023-11-29T17:15:45.830Z,8.30
2023-11-29T17:18:12.861Z,6.10
2023-11-29T17:20:40.519Z,5.30
2023-11-29T17:23:07.728Z,5.00
2023-11-29T17:25:34.509Z,4.80
2023-11-29T17:28:01.281Z,4.60
2023-11-29T17:30:27.973Z,4.50
2023-11-29T17:32:54.852Z,4.30
2023-11-29T17:35:21.577Z,4.90
2023-11-29T17:37:48.322Z,5.80
2023-11-29T17:40:15.249Z,6.20
2023-11-29T17:42:42.024Z,6.60
2023-11-29T17:45:10.920Z,6.70
2023-11-29T17:47:37.878Z,6.60
2023-11-29T17:50:08.016Z,6.70
2023-11-29T17:52:35.888Z,6.60
2023-11-29T17:55:04.679Z,6.70
2023-11-29T17:57:32.136Z,6.80
2023-11-29T17:59:58.955Z,6.80
2023-11-29T18:02:27.371Z,6.90
2023-11-29T18:04:54.243Z,6.70
2023-11-29T18:07:21.108Z,6.50
2023-11-29T18:09:48.002Z,6.60
2023-11-29T18:12:14.855Z,6.60
2023-11-29T18:14:42.594Z,6.70
2023-11-29T18:17:09.701Z,6.60
2023-11-29T18:19:36.383Z,6.30
2023-11-29T18:22:03.788Z,6.60
2023-11-29T18:24:30.493Z,6.40
2023-11-29T18:26:57.213Z,6.40
2023-11-29T18:29:24.156Z,6.30
2023-11-29T18:31:53.015Z,6.40
2023-11-29T18:34:22.518Z,6.50
2023-11-29T18:36:50.658Z,6.50
2023-11-29T18:39:18.786Z,6.50
2023-11-29T18:41:45.573Z,6.30
2023-11-29T18:44:12.926Z,6.20
2023-11-29T18:46:39.612Z,6.20
2023-11-29T18:49:06.374Z,6.20
2023-11-29T18:51:35.097Z,6.30
2023-11-29T18:54:01.964Z,6.40
2023-11-29T18:56:28.673Z,6.60
2023-11-29T18:58:55.641Z,6.70
2023-11-29T19:01:22.572Z,6.70
2023-11-29T19:03:49.527Z,6.70
2023-11-29T19:06:19.373Z,6.60
2023-11-29T19:08:46.232Z,6.60
2023-11-29T19:11:13.481Z,6.70
2023-11-29T19:13:40.214Z,6.80
2023-11-29T19:16:07.719Z,6.70
2023-11-29T19:18:35.159Z,6.70
2023-11-29T19:21:02.081Z,6.70
2023-11-29T19:23:35.911Z,6.80
2023-11-29T19:26:05.619Z,6.80
2023-11-29T19:28:32.542Z,6.90
2023-11-29T19:31:00.647Z,6.90
2023-11-29T19:33:27.537Z,6.90
2023-11-29T19:35:55.667Z,6.90
2023-11-29T19:38:22.597Z,6.90
2023-11-29T19:40:49.360Z,6.90
2023-11-29T19:43:16.263Z,7.00
2023-11-29T19:45:43.018Z,7.00
2023-11-29T19:48:09.763Z,7.00
2023-11-29T19:50:36.864Z,7.00
2023-11-29T19:53:03.749Z,7.10
2023-11-29T19:55:30.426Z,7.10
2023-11-29T19:57:57.123Z,7.20
2023-11-29T20:00:23.936Z,7.20
2023-11-29T20:02:50.892Z,7.20
2023-11-29T20:05:17.783Z,7.30
2023-11-29T20:07:45.842Z,7.40
2023-11-29T20:10:13.087Z,7.40
2023-11-29T20:12:39.828Z,7.40
2023-11-29T20:15:07.216Z,7.50
2023-11-29T20:17:34.018Z,7.50
2023-11-29T20:20:06.497Z,7.50
2023-11-29T20:22:37.681Z,7.50
2023-11-29T20:25:05.660Z,7.40
2023-11-29T20:27:32.569Z,7.40
2023-11-29T20:29:59.479Z,7.30
2023-11-29T20:32:26.315Z,7.30
2023-11-29T20:35:08.918Z,7.40
2023-11-29T20:37:39.828Z,7.40
2023-11-29T20:40:07.454Z,7.40
2023-11-29T20:42:36.297Z,7.40
2023-11-29T20:45:03.784Z,7.40
2023-11-29T20:47:31.983Z,7.30
2023-11-29T20:49:58.803Z,7.20
2023-11-29T20:52:25.686Z,7.40
2023-11-29T20:54:52.442Z,7.40
2023-11-29T20:57:19.183Z,7.40
2023-11-29T20:59:49.088Z,7.40
2023-11-29T21:02:19.388Z,7.40
2023-11-29T21:04:46.345Z,7.20
2023-11-29T21:07:16.256Z,7.30
2023-11-29T21:09:43.010Z,7.30
2023-11-29T21:12:10.021Z,7.30
2023-11-29T21:14:36.843Z,7.30
2023-11-29T21:17:04.581Z,7.50
2023-11-29T21:19:31.656Z,7.40
2023-11-29T21:21:58.427Z,7.40
2023-11-29T21:24:25.383Z,7.50
2023-11-29T21:26:52.267Z,7.50
2023-11-29T21:29:19.066Z,7.60
2023-11-29T21:31:45.752Z,8.00
2023-11-29T21:34:12.445Z,7.90
2023-11-29T21:36:39.130Z,8.10
2023-11-29T21:39:06.998Z,8.30
2023-11-29T21:41:33.778Z,8.40
2023-11-29T21:44:00.739Z,8.50
2023-11-29T21:46:27.512Z,8.50
2023-11-29T21:48:54.338Z,8.50
2023-11-29T21:51:21.244Z,8.60
2023-11-29T21:53:48.022Z,8.80
2023-11-29T21:56:14.803Z,8.90
2023-11-29T21:58:41.497Z,8.90
2023-11-29T22:01:08.356Z,9.00
2023-11-29T22:03:35.318Z,9.80
2023-11-29T22:06:02.917Z,9.90
2023-11-29T22:08:29.817Z,10.00
2023-11-29T22:10:56.467Z,10.10
2023-11-29T22:13:23.134Z,10.20
2023-11-29T22:15:49.867Z,10.30
2023-11-29T22:18:16.675Z,10.40
2023-11-29T22:20:43.509Z,10.30
2023-11-29T22:23:10.315Z,10.40
2023-11-29T22:25:37.001Z,10.20
2023-11-29T22:28:03.880Z,10.20
2023-11-29T22:30:30.813Z,10.20
2023-11-29T22:32:57.636Z,10.40
2023-11-29T22:35:24.354Z,10.50
2023-11-29T22:37:51.372Z,10.40
2023-11-29T22:40:18.050Z,10.40
2023-11-29T22:42:44.884Z,10.60
2023-11-29T22:45:11.695Z,10.90
2023-11-29T22:47:38.448Z,10.90
2023-11-29T22:50:05.597Z,10.90
2023-11-29T22:52:32.283Z,10.90
2023-11-29T22:54:59.062Z,11.00
2023-11-29T22:57:26.001Z,11.10
2023-11-29T22:59:52.672Z,11.10
2023-11-29T23:02:19.458Z,11.20
2023-11-29T23:04:46.280Z,11.20
2023-11-29T23:07:12.958Z,11.40
2023-11-29T23:09:41.526Z,11.30
2023-11-29T23:12:08.579Z,11.30
2023-11-29T23:14:35.457Z,11.30
2023-11-29T23:17:02.286Z,11.20
2023-11-29T23:19:29.171Z,11.30
2023-11-29T23:21:55.878Z,11.20
2023-11-29T23:24:22.579Z,11.30
2023-11-29T23:26:49.324Z,11.30
2023-11-29T23:29:16.044Z,11.30
2023-11-29T23:31:42.773Z,11.30
2023-11-29T23:34:09.503Z,11.40
2023-11-29T23:36:36.178Z,11.40
2023-11-29T23:39:02.908Z,11.30
2023-11-29T23:41:29.617Z,11.30
2023-11-29T23:43:56.288Z,11.30
2023-11-29T23:46:22.990Z,11.30
2023-11-29T23:48:49.706Z,11.30
2023-11-29T23:51:16.492Z,11.40
2023-11-29T23:53:45.646Z,11.40
2023-11-29T23:56:14.014Z,11.40
2023-11-29T23:58:41.924Z,11.40
